createdAt,value
2023-05-02T00:00:38.545Z,4.48
2023-05-02T00:03:09.298Z,4.62
2023-05-02T00:05:39.551Z,4.54
2023-05-02T00:08:10.339Z,4.54
2023-05-02T00:10:40.885Z,4.66
2023-05-02T00:13:11.764Z,4.59
2023-05-02T00:15:41.953Z,4.56
2023-05-02T00:18:12.196Z,4.48
2023-05-02T00:20:42.845Z,4.49
2023-05-02T00:23:13.577Z,4.53
2023-05-02T00:25:44.002Z,4.44
2023-05-02T00:28:14.446Z,4.43
2023-05-02T00:30:44.557Z,4.46
2023-05-02T00:33:14.788Z,4.36
2023-05-02T00:35:45.252Z,4.42
2023-05-02T00:38:16.144Z,4.34
2023-05-02T00:40:46.766Z,4.39
2023-05-02T00:43:17.527Z,4.4
2023-05-02T00:45:48.197Z,4.44
2023-05-02T00:48:18.523Z,4.43
2023-05-02T00:50:48.621Z,4.65
2023-05-02T00:53:18.801Z,4.51
2023-05-02T00:55:49.417Z,4.49
2023-05-02T00:58:20.094Z,4.52
2023-05-02T01:00:50.879Z,4.67
2023-05-02T01:03:21.812Z,4.6
2023-05-02T01:05:52.535Z,4.61
2023-05-02T01:08:22.917Z,4.72
2023-05-02T01:10:53.246Z,4.53
2023-05-02T01:13:23.240Z,4.56
2023-05-02T01:15:53.571Z,4.76
2023-05-02T01:18:23.711Z,4.74
2023-05-02T01:20:54.218Z,4.87
2023-05-02T01:23:24.828Z,4.89
2023-05-02T01:25:55.166Z,4.9
2023-05-02T01:28:25.324Z,4.98
2023-05-02T01:30:55.398Z,5.12
2023-05-02T01:33:25.393Z,5.25
2023-05-02T01:35:55.893Z,5.42
2023-05-02T01:38:26.239Z,5.32
2023-05-02T01:40:56.683Z,5.26
2023-05-02T01:43:27.547Z,5.52
2023-05-02T01:45:57.651Z,5.65
2023-05-02T01:48:28.401Z,5.72
2023-05-02T01:50:58.991Z,5.67
2023-05-02T01:53:29.391Z,5.77
2023-05-02T01:55:59.965Z,5.78
2023-05-02T01:58:30.210Z,5.75
2023-05-02T02:01:00.773Z,5.84
2023-05-02T02:03:31.323Z,5.75
2023-05-02T02:06:01.860Z,5.87
2023-05-02T02:08:32.394Z,5.83
2023-05-02T02:11:02.976Z,5.87
2023-05-02T02:13:33.531Z,5.83
2023-05-02T02:16:04.149Z,5.62
2023-05-02T02:18:34.651Z,5.63
2023-05-02T02:21:05.262Z,5.71
2023-05-02T02:23:35.810Z,5.58
2023-05-02T02:26:06.404Z,5.47
2023-05-02T02:28:36.976Z,5.52
2023-05-02T02:31:07.657Z,5.52
2023-05-02T02:33:38.248Z,5.62
2023-05-02T02:36:08.765Z,5.49
2023-05-02T02:38:39.326Z,5.45
2023-05-02T02:41:09.907Z,5.38
2023-05-02T02:43:40.488Z,5.34
2023-05-02T02:46:11.247Z,5.51
2023-05-02T02:48:41.642Z,5.28
2023-05-02T02:51:12.252Z,5.22
2023-05-02T02:53:42.810Z,5.24
2023-05-02T02:56:13.404Z,5.17
2023-05-02T02:58:44.051Z,5.15
2023-05-02T03:01:14.622Z,5
2023-05-02T03:03:45.233Z,5.15
2023-05-02T03:06:15.759Z,4.96
2023-05-02T03:08:46.323Z,5.05
2023-05-02T03:11:16.893Z,5.02
2023-05-02T03:13:47.461Z,5.03
2023-05-02T03:16:18.153Z,4.96
2023-05-02T03:18:48.629Z,4.98
2023-05-02T03:21:19.216Z,5.11
2023-05-02T03:23:49.858Z,5.07
2023-05-02T03:26:20.379Z,4.95
2023-05-02T03:28:50.951Z,4.84
2023-05-02T03:31:21.920Z,4.88
2023-05-02T03:33:52.107Z,5.02
2023-05-02T03:36:22.706Z,4.87
2023-05-02T03:38:52.958Z,4.85
2023-05-02T03:41:23.543Z,5.1
2023-05-02T03:43:54.161Z,4.93
2023-05-02T03:46:24.613Z,4.94
2023-05-02T03:48:54.971Z,4.72
2023-05-02T03:51:25.562Z,4.66
2023-05-02T03:53:56.220Z,4.39
2023-05-02T03:56:26.760Z,4.65
2023-05-02T03:58:57.377Z,4.73
2023-05-02T04:01:28.047Z,4.72
2023-05-02T04:03:58.834Z,4.7
2023-05-02T04:06:29.502Z,4.78
2023-05-02T04:08:59.830Z,4.61
2023-05-02T04:11:29.968Z,4.5
2023-05-02T04:14:00.728Z,4.63
2023-05-02T04:16:31.444Z,4.65
2023-05-02T04:19:02.036Z,4.27
2023-05-02T04:21:32.649Z,4.25
2023-05-02T04:24:02.740Z,4.07
2023-05-02T04:26:33.241Z,3.81
2023-05-02T04:29:03.906Z,3.75
2023-05-02T04:31:34.825Z,3.9
2023-05-02T04:34:05.246Z,3.8
2023-05-02T04:36:35.941Z,3.71
2023-05-02T04:39:06.621Z,3.84
2023-05-02T04:41:37.052Z,3.75
2023-05-02T04:44:07.840Z,3.55
2023-05-02T04:46:38.290Z,3.95
2023-05-02T04:49:08.875Z,3.56
2023-05-02T04:51:39.191Z,4.07
2023-05-02T04:54:09.645Z,4.33
2023-05-02T04:56:40.293Z,4.24
2023-05-02T04:59:10.978Z,4.09
2023-05-02T05:01:41.749Z,4.11
2023-05-02T05:04:12.524Z,3.92
2023-05-02T05:06:43.146Z,3.91
2023-05-02T05:09:13.723Z,3.99
2023-05-02T05:11:43.794Z,4.03
2023-05-02T05:14:14.187Z,4.1
2023-05-02T05:16:44.733Z,4.12
2023-05-02T05:19:15.235Z,4.06
2023-05-02T05:21:45.921Z,4.14
2023-05-02T05:24:16.579Z,4.02
2023-05-02T05:26:46.914Z,3.84
2023-05-02T05:29:17.577Z,3.66
2023-05-02T05:31:48.104Z,3.86
2023-05-02T05:34:18.780Z,3.58
2023-05-02T05:36:49.340Z,3.64
2023-05-02T05:39:20.017Z,3.5
2023-05-02T05:41:50.698Z,3.46
2023-05-02T05:44:21.464Z,3.47
2023-05-02T05:46:51.847Z,3.99
2023-05-02T05:49:22.519Z,3.58
2023-05-02T05:51:53.124Z,3.48
2023-05-02T05:54:23.784Z,3.43
2023-05-02T05:56:54.489Z,3.6
2023-05-02T05:59:25.155Z,3.45
2023-05-02T06:01:55.874Z,3.42
2023-05-02T06:04:26.563Z,3.39
2023-05-02T06:06:57.273Z,3.38
2023-05-02T06:09:27.857Z,3.45
2023-05-02T06:11:58.543Z,3.28
2023-05-02T06:14:29.202Z,3.28
2023-05-02T06:16:59.556Z,3.27
2023-05-02T06:19:30.205Z,3.34
2023-05-02T06:22:00.911Z,3.31
2023-05-02T06:24:31.568Z,2.92
2023-05-02T06:27:02.198Z,3.03
2023-05-02T06:29:32.859Z,2.92
2023-05-02T06:32:03.670Z,3.03
2023-05-02T06:34:34.172Z,2.98
2023-05-02T06:37:04.838Z,3
2023-05-02T06:39:35.488Z,2.67
2023-05-02T06:42:06.161Z,2.66
2023-05-02T06:44:36.813Z,2.59
2023-05-02T06:47:07.625Z,2.67
2023-05-02T06:49:38.162Z,2.76
2023-05-02T06:52:08.830Z,2.88
2023-05-02T06:54:39.484Z,2.67
2023-05-02T06:57:10.123Z,2.59
2023-05-02T06:59:40.766Z,2.51
2023-05-02T07:02:11.473Z,2.75
2023-05-02T07:04:42.175Z,2.66
2023-05-02T07:07:12.457Z,2.56
2023-05-02T07:09:43.151Z,2.5
2023-05-02T07:12:13.816Z,2.5
2023-05-02T07:14:44.476Z,2.58
2023-05-02T07:17:15.163Z,2.56
2023-05-02T07:19:45.955Z,2.54
2023-05-02T07:22:16.540Z,2.47
2023-05-02T07:24:47.245Z,2.44
2023-05-02T07:27:17.878Z,2.51
2023-05-02T07:29:48.536Z,2.5
2023-05-02T07:32:19.306Z,2.13
2023-05-02T07:34:49.890Z,2.22
2023-05-02T07:37:20.613Z,2.28
2023-05-02T07:39:51.253Z,2.19
2023-05-02T07:42:21.942Z,2.11
2023-05-02T07:44:52.605Z,2.1
2023-05-02T07:47:23.362Z,2.04
2023-05-02T07:49:53.961Z,2.08
2023-05-02T07:52:24.650Z,2.01
2023-05-02T07:54:55.335Z,1.85
2023-05-02T07:57:25.996Z,1.89
2023-05-02T07:59:56.649Z,1.83
2023-05-02T08:02:27.657Z,1.7
2023-05-02T08:04:58.048Z,1.72
2023-05-02T08:07:28.425Z,1.77
2023-05-02T08:09:59.508Z,1.83
2023-05-02T08:12:29.771Z,1.81
2023-05-02T08:15:00.094Z,1.88
2023-05-02T08:17:30.803Z,1.85
2023-05-02T08:20:01.858Z,1.74
2023-05-02T08:22:32.066Z,1.8
2023-05-02T08:25:02.730Z,1.84
2023-05-02T08:27:33.341Z,1.84
2023-05-02T08:30:04.133Z,1.7
2023-05-02T08:32:34.774Z,1.65
2023-05-02T08:35:05.227Z,1.77
2023-05-02T08:37:35.868Z,1.64
2023-05-02T08:40:06.616Z,1.7
2023-05-02T08:42:37.178Z,1.71
2023-05-02T08:45:07.809Z,1.72
2023-05-02T08:47:38.528Z,1.6
2023-05-02T08:50:09.147Z,1.64
2023-05-02T08:52:39.984Z,1.74
2023-05-02T08:55:10.383Z,1.56
2023-05-02T08:57:41.028Z,1.5
2023-05-02T09:00:11.771Z,1.5
2023-05-02T09:02:42.748Z,1.65
2023-05-02T09:05:13.054Z,1.59
2023-05-02T09:07:43.696Z,1.51
2023-05-02T09:10:14.327Z,1.49
2023-05-02T09:12:44.989Z,1.59
2023-05-02T09:15:17.006Z,1.63
2023-05-02T09:17:46.114Z,1.69
2023-05-02T09:20:16.571Z,1.62
2023-05-02T09:22:47.192Z,1.68
2023-05-02T09:25:17.871Z,1.57
2023-05-02T09:27:48.399Z,1.53
2023-05-02T09:30:19.100Z,1.7
2023-05-02T09:32:49.649Z,1.52
2023-05-02T09:35:20.306Z,1.43
2023-05-02T09:37:50.845Z,1.47
2023-05-02T09:40:21.128Z,1.52
2023-05-02T09:42:51.751Z,1.47
2023-05-02T09:45:22.353Z,1.52
2023-05-02T09:47:53.035Z,1.45
2023-05-02T09:50:23.607Z,1.45
2023-05-02T09:52:54.224Z,1.45
2023-05-02T09:55:24.826Z,1.45
2023-05-02T09:57:55.378Z,1.5
2023-05-02T10:00:25.974Z,1.44
2023-05-02T10:02:56.658Z,1.38
2023-05-02T10:05:27.186Z,1.37
2023-05-02T10:07:57.819Z,1.29
2023-05-02T10:10:28.698Z,1.43
2023-05-02T10:12:58.972Z,1.35
2023-05-02T10:15:29.555Z,1.42
2023-05-02T10:18:00.236Z,1.47
2023-05-02T10:20:30.451Z,1.52
2023-05-02T10:23:01.014Z,1.49
2023-05-02T10:25:31.304Z,1.6
2023-05-02T10:28:01.907Z,1.48
2023-05-02T10:30:32.463Z,1.54
2023-05-02T10:33:02.844Z,1.58
2023-05-02T10:35:33.429Z,1.73
2023-05-02T10:38:04.127Z,1.52
2023-05-02T10:40:34.603Z,1.46
2023-05-02T10:43:05.224Z,1.52
2023-05-02T10:45:35.761Z,1.52
2023-05-02T10:48:06.197Z,1.55
2023-05-02T10:50:36.581Z,1.5
2023-05-02T10:53:07.340Z,1.48
2023-05-02T10:55:37.762Z,1.58
2023-05-02T10:58:08.376Z,1.57
2023-05-02T11:00:39.000Z,1.42
2023-05-02T11:03:09.937Z,1.48
2023-05-02T11:05:40.183Z,1.41
2023-05-02T11:08:10.808Z,1.48
2023-05-02T11:10:41.405Z,1.49
2023-05-02T11:13:12.017Z,1.44
2023-05-02T11:15:42.685Z,1.44
2023-05-02T11:18:13.462Z,1.26
2023-05-02T11:20:43.828Z,1.69
2023-05-02T11:23:14.167Z,1.6
2023-05-02T11:25:44.831Z,1.66
2023-05-02T11:28:15.394Z,1.6
2023-05-02T11:30:45.692Z,1.64
2023-05-02T11:33:16.408Z,1.64
2023-05-02T11:35:46.526Z,1.47
2023-05-02T11:38:17.166Z,1.56
2023-05-02T11:40:47.741Z,1.51
2023-05-02T11:43:18.382Z,1.62
2023-05-02T11:45:48.987Z,1.56
2023-05-02T11:48:19.869Z,1.59
2023-05-02T11:50:50.764Z,1.52
2023-05-02T11:53:20.817Z,1.52
2023-05-02T11:55:51.426Z,1.51
2023-05-02T11:58:22.169Z,1.41
2023-05-02T12:00:52.657Z,1.37
2023-05-02T12:03:23.140Z,1.9
2023-05-02T12:05:53.576Z,1.79
2023-05-02T12:08:24.197Z,1.84
2023-05-02T12:10:54.728Z,1.89
2023-05-02T12:13:25.409Z,1.85
2023-05-02T12:15:56.151Z,1.83
2023-05-02T12:18:26.674Z,1.89
2023-05-02T12:20:57.132Z,1.77
2023-05-02T12:23:27.734Z,1.71
2023-05-02T12:25:58.364Z,1.77
2023-05-02T12:28:28.933Z,1.83
2023-05-02T12:30:59.539Z,1.78
2023-05-02T12:33:30.138Z,1.78
2023-05-02T12:36:00.745Z,1.89
2023-05-02T12:38:31.335Z,1.92
2023-05-02T12:41:01.910Z,1.79
2023-05-02T12:43:32.535Z,1.95
2023-05-02T12:46:03.147Z,1.9
2023-05-02T12:48:33.850Z,1.89
2023-05-02T12:51:04.248Z,1.93
2023-05-02T12:53:34.863Z,1.92
2023-05-02T12:56:05.526Z,1.97
2023-05-02T12:58:36.064Z,1.91
2023-05-02T13:01:06.667Z,1.91
2023-05-02T13:03:37.310Z,1.83
2023-05-02T13:06:07.853Z,1.9
2023-05-02T13:08:38.396Z,1.82
2023-05-02T13:11:08.994Z,1.82
2023-05-02T13:13:39.632Z,1.93
2023-05-02T13:16:10.213Z,1.92
2023-05-02T13:18:40.906Z,2.04
2023-05-02T13:21:11.343Z,1.94
2023-05-02T13:23:41.928Z,1.95
2023-05-02T13:26:12.610Z,2.01
2023-05-02T13:28:43.095Z,2.01
2023-05-02T13:31:13.823Z,1.97
2023-05-02T13:33:44.383Z,1.97
2023-05-02T13:36:14.856Z,1.97
2023-05-02T13:38:45.459Z,1.97
2023-05-02T13:41:16.028Z,1.96
2023-05-02T13:43:46.648Z,1.96
2023-05-02T13:46:17.212Z,1.96
2023-05-02T13:48:47.789Z,1.88
2023-05-02T13:51:18.347Z,1.98
2023-05-02T13:53:48.960Z,2.05
2023-05-02T13:56:19.524Z,1.93
2023-05-02T13:58:50.109Z,1.89
2023-05-02T14:01:20.715Z,1.9
2023-05-02T14:03:51.494Z,2.02
2023-05-02T14:06:21.961Z,1.97
2023-05-02T14:08:52.493Z,1.98
2023-05-02T14:11:23.071Z,2.04
2023-05-02T14:13:53.687Z,2.03
2023-05-02T14:16:24.311Z,1.98
2023-05-02T14:18:54.907Z,1.96
2023-05-02T14:21:25.694Z,1.94
2023-05-02T14:23:56.051Z,1.89
2023-05-02T14:26:26.639Z,1.94
2023-05-02T14:28:57.227Z,1.87
2023-05-02T14:31:27.859Z,1.87
2023-05-02T14:33:58.404Z,1.83
2023-05-02T14:36:28.951Z,1.92
2023-05-02T14:38:59.555Z,1.91
2023-05-02T14:41:30.127Z,1.89
2023-05-02T14:44:00.715Z,1.94
2023-05-02T14:46:31.354Z,1.95
2023-05-02T14:49:02.092Z,1.97
2023-05-02T14:51:32.433Z,1.97
2023-05-02T14:54:03.042Z,2.03
2023-05-02T14:56:33.710Z,2.03
2023-05-02T14:59:04.228Z,1.91
2023-05-02T15:01:34.917Z,1.96
2023-05-02T15:04:07.793Z,1.97
2023-05-02T15:06:36.538Z,1.91
2023-05-02T15:09:06.748Z,1.95
2023-05-02T15:11:37.178Z,1.83
2023-05-02T15:14:07.789Z,1.77
2023-05-02T15:16:38.387Z,1.89
2023-05-02T15:19:09.115Z,1.89
2023-05-02T15:21:39.521Z,2.06
2023-05-02T15:24:10.156Z,2.14
2023-05-02T15:26:40.570Z,2.21
2023-05-02T15:29:11.104Z,2.23
2023-05-02T15:31:41.790Z,2.23
2023-05-02T15:34:12.354Z,2.14
2023-05-02T15:36:43.034Z,2.16
2023-05-02T15:39:13.551Z,2.08
2023-05-02T15:41:44.162Z,2.07
2023-05-02T15:44:14.802Z,2.12
2023-05-02T15:46:45.545Z,2.13
2023-05-02T15:49:16.100Z,2
2023-05-02T15:51:46.598Z,2.04
2023-05-02T15:54:17.317Z,1.96
2023-05-02T15:56:47.791Z,2.01
2023-05-02T15:59:18.415Z,1.9
2023-05-02T16:01:49.022Z,2
2023-05-02T16:04:19.755Z,1.99
2023-05-02T16:06:50.283Z,2.12
2023-05-02T16:09:20.795Z,2.08
2023-05-02T16:11:51.447Z,2.09
2023-05-02T16:14:22.149Z,2.1
2023-05-02T16:16:52.551Z,2.14
2023-05-02T16:19:23.175Z,2.14
2023-05-02T16:21:53.719Z,2.08
2023-05-02T16:24:24.398Z,2.03
2023-05-02T16:26:55.022Z,2.04
2023-05-02T16:29:25.548Z,1.98
2023-05-02T16:31:56.198Z,2.09
2023-05-02T16:34:26.950Z,2.05
2023-05-02T16:36:57.403Z,2.05
2023-05-02T16:39:28.115Z,2.04
2023-05-02T16:41:58.649Z,2.04
2023-05-02T16:44:29.269Z,2.27
2023-05-02T16:47:00.064Z,2.36
2023-05-02T16:49:30.643Z,2.41
2023-05-02T16:52:01.111Z,2.44
2023-05-02T16:54:31.738Z,2.55
2023-05-02T16:57:02.415Z,2.5
2023-05-02T16:59:32.966Z,2.56
2023-05-02T17:02:03.614Z,2.57
2023-05-02T17:04:34.360Z,2.58
2023-05-02T17:07:04.860Z,2.59
2023-05-02T17:09:35.257Z,2.38
2023-05-02T17:12:05.297Z,2.43
2023-05-02T17:14:35.795Z,2.49
2023-05-02T17:17:06.480Z,2.43
2023-05-02T17:19:37.198Z,2.46
2023-05-02T17:22:07.615Z,2.37
2023-05-02T17:24:38.323Z,2.44
2023-05-02T17:27:08.780Z,2.45
2023-05-02T17:29:39.552Z,2.54
2023-05-02T17:32:10.003Z,2.54
2023-05-02T17:34:40.677Z,2.47
2023-05-02T17:37:11.244Z,2.41
2023-05-02T17:39:42.056Z,2.48
2023-05-02T17:42:12.482Z,2.45
2023-05-02T17:44:43.119Z,2.45
2023-05-02T17:47:13.734Z,2.43
2023-05-02T17:49:44.378Z,2.44
2023-05-02T17:52:14.983Z,2.46
2023-05-02T17:54:45.628Z,2.51
2023-05-02T17:57:16.353Z,2.47
2023-05-02T17:59:46.907Z,2.41
2023-05-02T18:02:17.545Z,2.43
2023-05-02T18:04:48.198Z,2.53
2023-05-02T18:07:18.824Z,2.49
2023-05-02T18:09:49.629Z,2.49
2023-05-02T18:12:20.152Z,2.48
2023-05-02T18:14:50.767Z,2.44
2023-05-02T18:17:21.563Z,2.47
2023-05-02T18:19:52.168Z,2.59
2023-05-02T18:22:22.689Z,2.58
2023-05-02T18:24:53.533Z,2.59
2023-05-02T18:27:24.019Z,2.58
2023-05-02T18:29:54.676Z,2.59
2023-05-02T18:32:25.433Z,2.64
2023-05-02T18:34:56.091Z,2.65
2023-05-02T18:37:26.611Z,2.72
2023-05-02T18:39:57.391Z,2.66
2023-05-02T18:42:27.920Z,2.66
2023-05-02T18:44:58.591Z,2.61
2023-05-02T18:47:29.249Z,2.6
2023-05-02T18:49:59.954Z,2.61
2023-05-02T18:52:30.636Z,2.66
2023-05-02T18:55:01.421Z,2.62
2023-05-02T18:57:31.851Z,2.55
2023-05-02T19:00:02.517Z,2.61
2023-05-02T19:02:33.230Z,2.62
2023-05-02T19:05:04.028Z,2.56
2023-05-02T19:07:36.206Z,2.63
2023-05-02T19:10:05.126Z,2.64
2023-05-02T19:12:35.807Z,2.63
2023-05-02T19:15:06.648Z,2.64
2023-05-02T19:17:37.105Z,2.64
2023-05-02T19:20:07.808Z,2.71
2023-05-02T19:22:38.430Z,2.7
2023-05-02T19:25:09.196Z,2.7
2023-05-02T19:27:40.610Z,2.7
2023-05-02T19:30:10.426Z,2.65
2023-05-02T19:32:41.083Z,2.64
2023-05-02T19:35:11.748Z,2.7
2023-05-02T19:37:42.385Z,2.65
2023-05-02T19:40:13.077Z,2.72
2023-05-02T19:42:43.810Z,2.74
2023-05-02T19:45:14.434Z,2.68
2023-05-02T19:47:45.149Z,2.63
2023-05-02T19:50:15.786Z,2.7
2023-05-02T19:52:46.447Z,2.66
2023-05-02T19:55:17.148Z,2.68
2023-05-02T19:57:47.869Z,2.75
2023-05-02T20:00:18.555Z,2.75
2023-05-02T20:02:51.227Z,2.87
2023-05-02T20:05:19.990Z,2.87
2023-05-02T20:07:50.661Z,2.93
2023-05-02T20:10:21.474Z,2.99
2023-05-02T20:12:52.110Z,2.98
2023-05-02T20:15:22.780Z,2.92
2023-05-02T20:17:53.511Z,2.91
2023-05-02T20:20:24.166Z,2.97
2023-05-02T20:22:54.872Z,3.02
2023-05-02T20:25:25.548Z,3.08
2023-05-02T20:27:56.289Z,3.07
2023-05-02T20:30:26.943Z,3
2023-05-02T20:33:07.011Z,2.93
2023-05-02T20:35:28.332Z,3
2023-05-02T20:37:58.990Z,3
2023-05-02T20:40:29.698Z,3
2023-05-02T20:43:00.497Z,3
2023-05-02T20:45:31.098Z,3.06
2023-05-02T20:48:01.999Z,3.07
2023-05-02T20:50:32.499Z,3.12
2023-05-02T20:53:03.161Z,3.05
2023-05-02T20:55:33.969Z,3.05
2023-05-02T20:58:04.616Z,3.18
2023-05-02T21:00:35.254Z,3.19
2023-05-02T21:03:05.981Z,3.31
2023-05-02T21:05:36.654Z,3.31
2023-05-02T21:08:07.317Z,3.37
2023-05-02T21:10:38.033Z,3.3
2023-05-02T21:13:08.694Z,3.24
2023-05-02T21:15:39.577Z,3.36
2023-05-02T21:18:10.235Z,3.3
2023-05-02T21:20:41.001Z,3.29
2023-05-02T21:23:11.528Z,3.36
2023-05-02T21:25:42.187Z,3.29
2023-05-02T21:28:12.866Z,3.36
2023-05-02T21:30:43.602Z,3.36
2023-05-02T21:33:14.278Z,3.36
2023-05-02T21:35:45.010Z,3.37
2023-05-02T21:38:15.746Z,3.38
2023-05-02T21:40:46.420Z,3.45
2023-05-02T21:43:17.239Z,3.38
2023-05-02T21:45:47.830Z,3.31
2023-05-02T21:48:18.538Z,3.32
2023-05-02T21:50:49.259Z,3.19
2023-05-02T21:53:19.958Z,3.19
2023-05-02T21:55:50.703Z,3.2
2023-05-02T21:58:21.506Z,3.21
2023-05-02T22:00:52.191Z,3.29
2023-05-02T22:03:22.892Z,3.37
2023-05-02T22:05:53.584Z,3.36
2023-05-02T22:08:24.300Z,3.38
2023-05-02T22:10:55.191Z,3.38
2023-05-02T22:13:25.813Z,3.37
2023-05-02T22:15:56.486Z,3.51
2023-05-02T22:18:27.205Z,3.53
2023-05-02T22:20:57.956Z,3.55
2023-05-02T22:23:28.666Z,3.68
2023-05-02T22:25:59.138Z,4.06
2023-05-02T22:28:29.863Z,3.71
2023-05-02T22:31:00.600Z,3.59
2023-05-02T22:33:31.319Z,3.5
2023-05-02T22:36:02.097Z,3.56
2023-05-02T22:38:32.863Z,3.69
2023-05-02T22:41:03.545Z,3.63
2023-05-02T22:43:34.261Z,3.55
2023-05-02T22:46:05.097Z,3.65
2023-05-02T22:48:35.749Z,3.74
2023-05-02T22:51:06.524Z,3.87
2023-05-02T22:53:37.246Z,3.89
2023-05-02T22:56:08.182Z,3.81
2023-05-02T22:58:38.753Z,3.87
2023-05-02T23:01:09.587Z,4.02
2023-05-02T23:03:40.457Z,4.02
2023-05-02T23:06:11.084Z,4.07
2023-05-02T23:08:41.796Z,4.1
2023-05-02T23:11:12.738Z,4.1
2023-05-02T23:13:43.355Z,4.15
2023-05-02T23:16:14.136Z,4.23
2023-05-02T23:18:44.820Z,4.19
2023-05-02T23:21:15.623Z,4.18
2023-05-02T23:23:46.353Z,4.27
2023-05-02T23:26:17.148Z,4.27
2023-05-02T23:28:47.925Z,4.27
2023-05-02T23:31:18.730Z,4.24
2023-05-02T23:33:49.495Z,4.26
2023-05-02T23:36:20.315Z,4.32
2023-05-02T23:38:51.088Z,4.31
2023-05-02T23:41:21.942Z,4.42
2023-05-02T23:43:52.754Z,4.41
2023-05-02T23:46:23.677Z,4.42
2023-05-02T23:48:54.530Z,4.58
2023-05-02T23:51:24.582Z,4.44
2023-05-02T23:53:54.776Z,4.53
2023-05-02T23:56:24.943Z,4.62
2023-05-02T23:58:55.021Z,4.52
